sensor_id;sensor_type;location;lat;lon;timestamp;temperature;humidity
20463;DHT22;10390;53.566;9.980;2022-08-19T00:00:21;30.00;1.00
20463;DHT22;10390;53.566;9.980;2022-08-19T00:02:46;30.00;1.00
20463;DHT22;10390;53.566;9.980;2022-08-19T00:05:13;30.00;1.00
20463;DHT22;10390;53.566;9.980;2022-08-19T00:07:42;30.00;1.00
20463;DHT22;10390;53.566;9.980;2022-08-19T00:10:09;30.00;1.00
20463;DHT22;10390;53.566;9.980;2022-08-19T00:12:36;30.00;1.00
20463;DHT22;10390;53.566;9.980;2022-08-19T00:15:09;30.00;1.00
20463;DHT22;10390;53.566;9.980;2022-08-19T00:17:40;30.00;1.00
20463;DHT22;10390;53.566;9.980;2022-08-19T00:20:09;30.00;1.00
20463;DHT22;10390;53.566;9.980;2022-08-19T00:22:38;29.90;1.00
20463;DHT22;10390;53.566;9.980;2022-08-19T00:25:07;29.90;1.00
20463;DHT22;10390;53.566;9.980;2022-08-19T00:27:34;29.90;1.00
20463;DHT22;10390;53.566;9.980;2022-08-19T00:30:00;29.90;1.00
20463;DHT22;10390;53.566;9.980;2022-08-19T00:32:28;29.90;1.00
20463;DHT22;10390;53.566;9.980;2022-08-19T00:34:54;29.90;1.00
20463;DHT22;10390;53.566;9.980;2022-08-19T00:37:24;29.90;1.00
20463;DHT22;10390;53.566;9.980;2022-08-19T00:39:51;29.90;1.00
20463;DHT22;10390;53.566;9.980;2022-08-19T00:42:19;29.90;1.00
20463;DHT22;10390;53.566;9.980;2022-08-19T00:44:46;29.90;1.00
20463;DHT22;10390;53.566;9.980;2022-08-19T00:47:12;29.90;1.00
20463;DHT22;10390;53.566;9.980;2022-08-19T00:49:45;29.90;1.00
20463;DHT22;10390;53.566;9.980;2022-08-19T00:52:33;29.90;1.00
20463;DHT22;10390;53.566;9.980;2022-08-19T00:55:01;29.90;1.00
20463;DHT22;10390;53.566;9.980;2022-08-19T00:57:51;29.90;1.00
20463;DHT22;10390;53.566;9.980;2022-08-19T01:00:21;29.90;1.00
20463;DHT22;10390;53.566;9.980;2022-08-19T01:02:48;29.80;1.00
20463;DHT22;10390;53.566;9.980;2022-08-19T01:05:20;29.80;1.00
20463;DHT22;10390;53.566;9.980;2022-08-19T01:07:49;29.80;1.00
20463;DHT22;10390;53.566;9.980;2022-08-19T01:10:20;29.80;1.00
20463;DHT22;10390;53.566;9.980;2022-08-19T01:12:49;29.80;1.00
20463;DHT22;10390;53.566;9.980;2022-08-19T01:15:19;29.80;1.00
20463;DHT22;10390;53.566;9.980;2022-08-19T01:17:48;29.80;1.00
20463;DHT22;10390;53.566;9.980;2022-08-19T01:20:19;29.80;1.00
20463;DHT22;10390;53.566;9.980;2022-08-19T01:22:53;29.70;1.00
20463;DHT22;10390;53.566;9.980;2022-08-19T01:25:47;29.80;1.00
20463;DHT22;10390;53.566;9.980;2022-08-19T01:28:26;29.80;1.00
20463;DHT22;10390;53.566;9.980;2022-08-19T01:30:53;29.80;1.00
20463;DHT22;10390;53.566;9.980;2022-08-19T01:33:20;29.80;1.00
20463;DHT22;10390;53.566;9.980;2022-08-19T01:35:46;29.70;1.00
20463;DHT22;10390;53.566;9.980;2022-08-19T01:38:26;29.70;1.00
20463;DHT22;10390;53.566;9.980;2022-08-19T01:40:52;29.70;1.00
20463;DHT22;10390;53.566;9.980;2022-08-19T01:43:18;29.70;1.00
20463;DHT22;10390;53.566;9.980;2022-08-19T01:45:45;29.70;1.00
20463;DHT22;10390;53.566;9.980;2022-08-19T01:48:12;29.70;1.00
20463;DHT22;10390;53.566;9.980;2022-08-19T01:50:38;29.70;1.00
20463;DHT22;10390;53.566;9.980;2022-08-19T01:53:09;29.70;1.00
20463;DHT22;10390;53.566;9.980;2022-08-19T01:55:38;29.60;1.00
20463;DHT22;10390;53.566;9.980;2022-08-19T01:58:08;29.70;1.00
20463;DHT22;10390;53.566;9.980;2022-08-19T02:00:39;29.70;1.00
20463;DHT22;10390;53.566;9.980;2022-08-19T02:03:05;29.60;1.00
20463;DHT22;10390;53.566;9.980;2022-08-19T02:05:32;29.70;1.00
20463;DHT22;10390;53.566;9.980;2022-08-19T02:07:57;29.60;1.00
20463;DHT22;10390;53.566;9.980;2022-08-19T02:10:24;29.60;1.00
20463;DHT22;10390;53.566;9.980;2022-08-19T02:12:50;29.60;1.00
20463;DHT22;10390;53.566;9.980;2022-08-19T02:15:17;29.60;1.00
20463;DHT22;10390;53.566;9.980;2022-08-19T02:17:45;29.60;1.00
20463;DHT22;10390;53.566;9.980;2022-08-19T02:20:11;29.60;1.00
20463;DHT22;10390;53.566;9.980;2022-08-19T02:22:39;29.60;1.00
20463;DHT22;10390;53.566;9.980;2022-08-19T02:25:11;29.60;1.00
20463;DHT22;10390;53.566;9.980;2022-08-19T02:27:38;29.60;1.00
20463;DHT22;10390;53.566;9.980;2022-08-19T02:30:07;29.50;1.00
20463;DHT22;10390;53.566;9.980;2022-08-19T02:32:34;29.50;1.00
20463;DHT22;10390;53.566;9.980;2022-08-19T02:35:01;29.60;1.00
20463;DHT22;10390;53.566;9.980;2022-08-19T02:37:27;29.50;1.00
20463;DHT22;10390;53.566;9.980;2022-08-19T02:40:11;29.50;1.00
20463;DHT22;10390;53.566;9.980;2022-08-19T02:42:37;29.50;1.00
20463;DHT22;10390;53.566;9.980;2022-08-19T02:45:04;29.50;1.00
20463;DHT22;10390;53.566;9.980;2022-08-19T02:47:30;29.50;1.00
20463;DHT22;10390;53.566;9.980;2022-08-19T02:49:56;29.50;1.00
20463;DHT22;10390;53.566;9.980;2022-08-19T02:52:22;29.50;1.00
20463;DHT22;10390;53.566;9.980;2022-08-19T02:54:48;29.50;1.00
20463;DHT22;10390;53.566;9.980;2022-08-19T02:57:15;29.50;1.00
20463;DHT22;10390;53.566;9.980;2022-08-19T02:59:40;29.50;1.00
20463;DHT22;10390;53.566;9.980;2022-08-19T03:02:06;29.50;1.00
20463;DHT22;10390;53.566;9.980;2022-08-19T03:04:32;29.50;1.00
20463;DHT22;10390;53.566;9.980;2022-08-19T03:06:58;29.50;1.00
20463;DHT22;10390;53.566;9.980;2022-08-19T03:09:23;29.40;1.00
20463;DHT22;10390;53.566;9.980;2022-08-19T03:11:49;29.50;1.00
20463;DHT22;10390;53.566;9.980;2022-08-19T03:14:15;29.40;1.00
20463;DHT22;10390;53.566;9.980;2022-08-19T03:16:47;29.40;1.00
20463;DHT22;10390;53.566;9.980;2022-08-19T03:19:17;29.40;1.00
20463;DHT22;10390;53.566;9.980;2022-08-19T03:21:45;29.40;1.00
20463;DHT22;10390;53.566;9.980;2022-08-19T03:24:12;29.40;1.00
20463;DHT22;10390;53.566;9.980;2022-08-19T03:26:41;29.40;1.00
20463;DHT22;10390;53.566;9.980;2022-08-19T03:29:08;29.40;1.00
20463;DHT22;10390;53.566;9.980;2022-08-19T03:31:37;29.40;1.00
20463;DHT22;10390;53.566;9.980;2022-08-19T03:34:04;29.40;1.00
20463;DHT22;10390;53.566;9.980;2022-08-19T03:36:30;29.40;1.00
20463;DHT22;10390;53.566;9.980;2022-08-19T03:38:59;29.30;1.00
20463;DHT22;10390;53.566;9.980;2022-08-19T03:41:29;29.40;1.00
20463;DHT22;10390;53.566;9.980;2022-08-19T03:43:57;29.40;1.00
20463;DHT22;10390;53.566;9.980;2022-08-19T03:46:26;29.40;1.00
20463;DHT22;10390;53.566;9.980;2022-08-19T03:48:55;29.30;1.00
20463;DHT22;10390;53.566;9.980;2022-08-19T03:51:28;29.30;1.00
20463;DHT22;10390;53.566;9.980;2022-08-19T03:53:57;29.30;1.00
20463;DHT22;10390;53.566;9.980;2022-08-19T03:56:25;29.30;1.00
20463;DHT22;10390;53.566;9.980;2022-08-19T03:58:53;29.30;1.00
20463;DHT22;10390;53.566;9.980;2022-08-19T04:01:22;29.30;1.00
20463;DHT22;10390;53.566;9.980;2022-08-19T04:03:52;29.30;1.00
20463;DHT22;10390;53.566;9.980;2022-08-19T04:06:22;29.30;1.00
20463;DHT22;10390;53.566;9.980;2022-08-19T04:08:51;29.30;1.00
20463;DHT22;10390;53.566;9.980;2022-08-19T04:11:21;29.30;1.00
20463;DHT22;10390;53.566;9.980;2022-08-19T04:13:50;29.30;1.00
20463;DHT22;10390;53.566;9.980;2022-08-19T04:16:18;29.30;1.00
20463;DHT22;10390;53.566;9.980;2022-08-19T04:18:47;29.30;1.00
20463;DHT22;10390;53.566;9.980;2022-08-19T04:21:23;29.30;1.00
20463;DHT22;10390;53.566;9.980;2022-08-19T04:23:50;29.30;1.00
20463;DHT22;10390;53.566;9.980;2022-08-19T04:26:25;29.20;1.00
20463;DHT22;10390;53.566;9.980;2022-08-19T04:28:53;29.20;1.00
20463;DHT22;10390;53.566;9.980;2022-08-19T04:31:22;29.20;1.00
20463;DHT22;10390;53.566;9.980;2022-08-19T04:33:54;29.20;1.00
20463;DHT22;10390;53.566;9.980;2022-08-19T04:36:26;29.20;1.00
20463;DHT22;10390;53.566;9.980;2022-08-19T04:38:59;29.20;1.00
20463;DHT22;10390;53.566;9.980;2022-08-19T04:41:26;29.20;1.00
20463;DHT22;10390;53.566;9.980;2022-08-19T04:44:12;29.20;1.00
20463;DHT22;10390;53.566;9.980;2022-08-19T04:46:39;29.10;1.00
20463;DHT22;10390;53.566;9.980;2022-08-19T04:49:06;29.20;1.00
20463;DHT22;10390;53.566;9.980;2022-08-19T04:51:34;29.10;1.00
20463;DHT22;10390;53.566;9.980;2022-08-19T04:54:04;29.10;1.00
20463;DHT22;10390;53.566;9.980;2022-08-19T04:56:30;29.10;1.00
20463;DHT22;10390;53.566;9.980;2022-08-19T04:58:57;29.20;1.00
20463;DHT22;10390;53.566;9.980;2022-08-19T05:01:26;29.20;1.00
20463;DHT22;10390;53.566;9.980;2022-08-19T05:03:54;29.10;1.00
20463;DHT22;10390;53.566;9.980;2022-08-19T05:06:22;29.10;1.00
20463;DHT22;10390;53.566;9.980;2022-08-19T05:08:49;29.10;1.00
20463;DHT22;10390;53.566;9.980;2022-08-19T05:11:23;29.10;1.00
20463;DHT22;10390;53.566;9.980;2022-08-19T05:13:51;29.10;1.00
20463;DHT22;10390;53.566;9.980;2022-08-19T05:16:19;29.10;1.00
20463;DHT22;10390;53.566;9.980;2022-08-19T05:18:46;29.10;1.00
20463;DHT22;10390;53.566;9.980;2022-08-19T05:21:31;29.00;1.00
20463;DHT22;10390;53.566;9.980;2022-08-19T05:24:17;29.00;1.00
20463;DHT22;10390;53.566;9.980;2022-08-19T05:26:46;29.00;1.00
20463;DHT22;10390;53.566;9.980;2022-08-19T05:29:15;29.00;1.00
20463;DHT22;10390;53.566;9.980;2022-08-19T05:31:45;29.00;1.00
20463;DHT22;10390;53.566;9.980;2022-08-19T05:34:11;29.00;1.00
20463;DHT22;10390;53.566;9.980;2022-08-19T05:36:42;29.00;1.00
20463;DHT22;10390;53.566;9.980;2022-08-19T05:39:13;29.00;1.00
20463;DHT22;10390;53.566;9.980;2022-08-19T05:41:50;29.10;1.00
20463;DHT22;10390;53.566;9.980;2022-08-19T05:44:18;29.10;1.00
20463;DHT22;10390;53.566;9.980;2022-08-19T05:46:47;29.10;1.00
20463;DHT22;10390;53.566;9.980;2022-08-19T05:49:15;29.10;1.00
20463;DHT22;10390;53.566;9.980;2022-08-19T05:51:42;29.10;1.00
20463;DHT22;10390;53.566;9.980;2022-08-19T05:54:08;29.10;1.00
20463;DHT22;10390;53.566;9.980;2022-08-19T05:56:36;29.10;1.00
20463;DHT22;10390;53.566;9.980;2022-08-19T05:59:04;29.10;1.00
20463;DHT22;10390;53.566;9.980;2022-08-19T06:01:38;29.20;1.00
20463;DHT22;10390;53.566;9.980;2022-08-19T06:04:06;29.20;1.00
20463;DHT22;10390;53.566;9.980;2022-08-19T06:06:32;29.20;1.00
20463;DHT22;10390;53.566;9.980;2022-08-19T06:09:03;29.20;1.00
20463;DHT22;10390;53.566;9.980;2022-08-19T06:14:07;29.30;1.00
20463;DHT22;10390;53.566;9.980;2022-08-19T06:16:37;29.30;1.00
20463;DHT22;10390;53.566;9.980;2022-08-19T06:19:07;29.30;1.00
20463;DHT22;10390;53.566;9.980;2022-08-19T06:21:35;29.30;1.00
20463;DHT22;10390;53.566;9.980;2022-08-19T06:24:04;29.30;1.00
20463;DHT22;10390;53.566;9.980;2022-08-19T06:26:34;29.30;1.00
20463;DHT22;10390;53.566;9.980;2022-08-19T06:29:01;29.30;1.00
20463;DHT22;10390;53.566;9.980;2022-08-19T06:31:29;29.30;1.00
20463;DHT22;10390;53.566;9.980;2022-08-19T06:34:05;29.30;1.00
20463;DHT22;10390;53.566;9.980;2022-08-19T06:36:38;29.30;1.00
20463;DHT22;10390;53.566;9.980;2022-08-19T06:39:11;29.30;1.00
20463;DHT22;10390;53.566;9.980;2022-08-19T06:41:42;29.40;1.00
20463;DHT22;10390;53.566;9.980;2022-08-19T06:44:10;29.40;1.00
20463;DHT22;10390;53.566;9.980;2022-08-19T06:46:38;29.40;1.00
20463;DHT22;10390;53.566;9.980;2022-08-19T06:49:05;29.40;1.00
20463;DHT22;10390;53.566;9.980;2022-08-19T06:51:34;29.40;1.00
20463;DHT22;10390;53.566;9.980;2022-08-19T06:54:00;29.40;1.00
20463;DHT22;10390;53.566;9.980;2022-08-19T06:56:29;29.40;1.00
20463;DHT22;10390;53.566;9.980;2022-08-19T06:59:00;29.40;1.00
20463;DHT22;10390;53.566;9.980;2022-08-19T07:01:28;29.40;1.00
20463;DHT22;10390;53.566;9.980;2022-08-19T07:03:54;29.40;1.00
20463;DHT22;10390;53.566;9.980;2022-08-19T07:06:20;29.40;1.00
20463;DHT22;10390;53.566;9.980;2022-08-19T07:08:47;29.40;1.00
20463;DHT22;10390;53.566;9.980;2022-08-19T07:11:16;29.40;1.00
20463;DHT22;10390;53.566;9.980;2022-08-19T07:13:43;29.40;1.00
20463;DHT22;10390;53.566;9.980;2022-08-19T07:16:16;29.40;1.00
20463;DHT22;10390;53.566;9.980;2022-08-19T07:18:45;29.50;1.00
20463;DHT22;10390;53.566;9.980;2022-08-19T07:21:23;29.40;1.00
20463;DHT22;10390;53.566;9.980;2022-08-19T07:23:56;29.40;1.00
20463;DHT22;10390;53.566;9.980;2022-08-19T07:26:28;29.40;1.00
20463;DHT22;10390;53.566;9.980;2022-08-19T07:28:56;29.30;1.00
20463;DHT22;10390;53.566;9.980;2022-08-19T07:31:26;29.30;1.00
20463;DHT22;10390;53.566;9.980;2022-08-19T07:33:54;29.20;1.00
20463;DHT22;10390;53.566;9.980;2022-08-19T07:36:27;29.20;1.00
20463;DHT22;10390;53.566;9.980;2022-08-19T07:38:56;29.10;1.00
20463;DHT22;10390;53.566;9.980;2022-08-19T07:41:24;29.00;1.00
20463;DHT22;10390;53.566;9.980;2022-08-19T07:43:52;29.00;1.00
20463;DHT22;10390;53.566;9.980;2022-08-19T07:46:18;29.00;1.00
20463;DHT22;10390;53.566;9.980;2022-08-19T07:48:47;29.00;1.00
20463;DHT22;10390;53.566;9.980;2022-08-19T07:51:18;28.90;1.00
20463;DHT22;10390;53.566;9.980;2022-08-19T07:53:45;28.90;1.00
20463;DHT22;10390;53.566;9.980;2022-08-19T07:56:13;28.90;1.00
20463;DHT22;10390;53.566;9.980;2022-08-19T07:58:41;28.80;1.00
20463;DHT22;10390;53.566;9.980;2022-08-19T08:01:17;28.80;1.00
20463;DHT22;10390;53.566;9.980;2022-08-19T08:03:46;28.80;1.00
20463;DHT22;10390;53.566;9.980;2022-08-19T08:06:31;28.80;1.00
20463;DHT22;10390;53.566;9.980;2022-08-19T08:09:22;28.80;1.00
20463;DHT22;10390;53.566;9.980;2022-08-19T08:12:12;28.80;1.00
20463;DHT22;10390;53.566;9.980;2022-08-19T08:14:49;28.80;1.00
20463;DHT22;10390;53.566;9.980;2022-08-19T08:17:20;28.80;1.00
20463;DHT22;10390;53.566;9.980;2022-08-19T08:19:47;28.80;1.00
20463;DHT22;10390;53.566;9.980;2022-08-19T08:22:18;28.80;1.00
20463;DHT22;10390;53.566;9.980;2022-08-19T08:25:08;28.80;1.00
20463;DHT22;10390;53.566;9.980;2022-08-19T08:27:40;28.90;1.00
20463;DHT22;10390;53.566;9.980;2022-08-19T08:30:18;28.90;1.00
20463;DHT22;10390;53.566;9.980;2022-08-19T08:32:46;28.90;1.00
20463;DHT22;10390;53.566;9.980;2022-08-19T08:35:14;29.00;1.00
20463;DHT22;10390;53.566;9.980;2022-08-19T08:37:43;29.00;1.00
20463;DHT22;10390;53.566;9.980;2022-08-19T08:40:30;29.00;1.00
20463;DHT22;10390;53.566;9.980;2022-08-19T08:43:33;29.00;1.00
20463;DHT22;10390;53.566;9.980;2022-08-19T08:46:14;29.00;1.00
20463;DHT22;10390;53.566;9.980;2022-08-19T08:48:54;29.10;1.00
20463;DHT22;10390;53.566;9.980;2022-08-19T08:51:42;29.10;1.00
20463;DHT22;10390;53.566;9.980;2022-08-19T08:54:12;29.10;1.00
20463;DHT22;10390;53.566;9.980;2022-08-19T08:56:42;29.10;1.00
20463;DHT22;10390;53.566;9.980;2022-08-19T08:59:29;29.20;1.00
20463;DHT22;10390;53.566;9.980;2022-08-19T09:02:00;29.10;1.00
20463;DHT22;10390;53.566;9.980;2022-08-19T09:04:27;29.20;1.00
20463;DHT22;10390;53.566;9.980;2022-08-19T09:07:00;29.20;1.00
20463;DHT22;10390;53.566;9.980;2022-08-19T09:09:41;29.20;1.00
20463;DHT22;10390;53.566;9.980;2022-08-19T09:15:18;29.20;1.00
20463;DHT22;10390;53.566;9.980;2022-08-19T09:18:11;29.20;1.00
20463;DHT22;10390;53.566;9.980;2022-08-19T09:20:37;29.20;1.00
20463;DHT22;10390;53.566;9.980;2022-08-19T09:23:03;29.20;1.00
20463;DHT22;10390;53.566;9.980;2022-08-19T09:25:29;29.20;1.00
20463;DHT22;10390;53.566;9.980;2022-08-19T09:27:58;29.20;1.00
20463;DHT22;10390;53.566;9.980;2022-08-19T09:30:31;29.20;1.00
20463;DHT22;10390;53.566;9.980;2022-08-19T09:33:05;29.20;1.00
20463;DHT22;10390;53.566;9.980;2022-08-19T09:35:32;29.30;1.00
20463;DHT22;10390;53.566;9.980;2022-08-19T09:37:59;29.20;1.00
20463;DHT22;10390;53.566;9.980;2022-08-19T09:40:27;29.20;1.00
20463;DHT22;10390;53.566;9.980;2022-08-19T09:42:54;29.30;1.00
20463;DHT22;10390;53.566;9.980;2022-08-19T09:45:21;29.20;1.00
20463;DHT22;10390;53.566;9.980;2022-08-19T09:47:48;29.20;1.00
20463;DHT22;10390;53.566;9.980;2022-08-19T09:50:16;29.30;1.00
20463;DHT22;10390;53.566;9.980;2022-08-19T09:52:44;29.20;1.00
20463;DHT22;10390;53.566;9.980;2022-08-19T09:55:11;29.20;1.00
20463;DHT22;10390;53.566;9.980;2022-08-19T09:57:37;29.30;1.00
20463;DHT22;10390;53.566;9.980;2022-08-19T10:00:07;29.20;1.00
20463;DHT22;10390;53.566;9.980;2022-08-19T10:02:35;29.30;1.00
20463;DHT22;10390;53.566;9.980;2022-08-19T10:05:01;29.30;1.00
20463;DHT22;10390;53.566;9.980;2022-08-19T10:07:45;29.20;1.00
20463;DHT22;10390;53.566;9.980;2022-08-19T10:10:12;29.20;1.00
20463;DHT22;10390;53.566;9.980;2022-08-19T10:12:38;29.20;1.00
20463;DHT22;10390;53.566;9.980;2022-08-19T10:15:05;29.20;1.00
20463;DHT22;10390;53.566;9.980;2022-08-19T10:17:32;29.20;1.00
20463;DHT22;10390;53.566;9.980;2022-08-19T10:20:00;29.20;1.00
20463;DHT22;10390;53.566;9.980;2022-08-19T10:22:28;29.20;1.00
20463;DHT22;10390;53.566;9.980;2022-08-19T10:24:54;29.20;1.00
20463;DHT22;10390;53.566;9.980;2022-08-19T10:27:20;29.20;1.00
20463;DHT22;10390;53.566;9.980;2022-08-19T10:29:46;29.20;1.00
20463;DHT22;10390;53.566;9.980;2022-08-19T10:32:13;29.20;1.00
20463;DHT22;10390;53.566;9.980;2022-08-19T10:34:39;29.10;1.00
20463;DHT22;10390;53.566;9.980;2022-08-19T10:37:05;29.10;1.00
20463;DHT22;10390;53.566;9.980;2022-08-19T10:39:33;29.10;1.00
20463;DHT22;10390;53.566;9.980;2022-08-19T10:42:07;29.20;1.00
20463;DHT22;10390;53.566;9.980;2022-08-19T10:44:34;29.10;1.00
20463;DHT22;10390;53.566;9.980;2022-08-19T10:47:02;29.10;1.00
20463;DHT22;10390;53.566;9.980;2022-08-19T10:49:29;29.10;1.00
20463;DHT22;10390;53.566;9.980;2022-08-19T10:51:55;29.10;1.00
20463;DHT22;10390;53.566;9.980;2022-08-19T10:54:40;29.20;1.00
20463;DHT22;10390;53.566;9.980;2022-08-19T10:57:25;29.10;1.00
20463;DHT22;10390;53.566;9.980;2022-08-19T10:59:55;29.10;1.00
20463;DHT22;10390;53.566;9.980;2022-08-19T11:02:21;29.10;1.00
20463;DHT22;10390;53.566;9.980;2022-08-19T11:04:47;29.10;1.00
20463;DHT22;10390;53.566;9.980;2022-08-19T11:07:16;29.10;1.00
20463;DHT22;10390;53.566;9.980;2022-08-19T11:09:42;29.10;1.00
20463;DHT22;10390;53.566;9.980;2022-08-19T11:12:09;29.10;1.00
20463;DHT22;10390;53.566;9.980;2022-08-19T11:14:37;29.10;1.00
20463;DHT22;10390;53.566;9.980;2022-08-19T11:17:05;29.10;1.00
20463;DHT22;10390;53.566;9.980;2022-08-19T11:19:32;29.10;1.00
20463;DHT22;10390;53.566;9.980;2022-08-19T11:21:59;29.10;1.00
20463;DHT22;10390;53.566;9.980;2022-08-19T11:24:26;29.10;1.00
20463;DHT22;10390;53.566;9.980;2022-08-19T11:26:55;29.10;1.00
20463;DHT22;10390;53.566;9.980;2022-08-19T11:29:27;29.10;1.00
20463;DHT22;10390;53.566;9.980;2022-08-19T11:31:54;29.10;1.00
20463;DHT22;10390;53.566;9.980;2022-08-19T11:34:26;29.10;1.00
20463;DHT22;10390;53.566;9.980;2022-08-19T11:36:54;29.10;1.00
20463;DHT22;10390;53.566;9.980;2022-08-19T11:39:24;29.10;1.00
20463;DHT22;10390;53.566;9.980;2022-08-19T11:41:51;29.10;1.00
20463;DHT22;10390;53.566;9.980;2022-08-19T11:44:17;29.10;1.00
20463;DHT22;10390;53.566;9.980;2022-08-19T11:46:44;29.10;1.00
20463;DHT22;10390;53.566;9.980;2022-08-19T11:49:13;29.10;1.00
20463;DHT22;10390;53.566;9.980;2022-08-19T11:51:40;29.10;1.00
20463;DHT22;10390;53.566;9.980;2022-08-19T11:54:08;29.10;1.00
20463;DHT22;10390;53.566;9.980;2022-08-19T11:56:37;29.10;1.00
20463;DHT22;10390;53.566;9.980;2022-08-19T11:59:03;29.10;1.00
20463;DHT22;10390;53.566;9.980;2022-08-19T12:01:29;29.10;1.00
20463;DHT22;10390;53.566;9.980;2022-08-19T12:04:02;29.10;1.00
20463;DHT22;10390;53.566;9.980;2022-08-19T12:06:32;29.20;1.00
20463;DHT22;10390;53.566;9.980;2022-08-19T12:09:02;29.10;1.00
20463;DHT22;10390;53.566;9.980;2022-08-19T12:11:30;29.20;1.00
20463;DHT22;10390;53.566;9.980;2022-08-19T12:13:56;29.20;1.00
20463;DHT22;10390;53.566;9.980;2022-08-19T12:16:25;29.20;1.00
20463;DHT22;10390;53.566;9.980;2022-08-19T12:18:54;29.20;1.00
20463;DHT22;10390;53.566;9.980;2022-08-19T12:21:22;29.20;1.00
20463;DHT22;10390;53.566;9.980;2022-08-19T12:23:55;29.20;1.00
20463;DHT22;10390;53.566;9.980;2022-08-19T12:26:22;29.20;1.00
20463;DHT22;10390;53.566;9.980;2022-08-19T12:28:49;29.20;1.00
20463;DHT22;10390;53.566;9.980;2022-08-19T12:31:15;29.20;1.00
20463;DHT22;10390;53.566;9.980;2022-08-19T12:33:42;29.20;1.00
20463;DHT22;10390;53.566;9.980;2022-08-19T12:36:11;29.20;1.00
20463;DHT22;10390;53.566;9.980;2022-08-19T12:38:39;29.30;1.00
20463;DHT22;10390;53.566;9.980;2022-08-19T12:41:09;29.20;1.00
20463;DHT22;10390;53.566;9.980;2022-08-19T12:43:37;29.30;1.00
20463;DHT22;10390;53.566;9.980;2022-08-19T12:46:05;29.30;1.00
20463;DHT22;10390;53.566;9.980;2022-08-19T12:48:32;29.30;1.00
20463;DHT22;10390;53.566;9.980;2022-08-19T12:50:58;29.30;1.00
20463;DHT22;10390;53.566;9.980;2022-08-19T12:53:28;29.30;1.00
20463;DHT22;10390;53.566;9.980;2022-08-19T12:56:00;29.30;1.00
20463;DHT22;10390;53.566;9.980;2022-08-19T12:58:26;29.30;1.00
20463;DHT22;10390;53.566;9.980;2022-08-19T13:00:53;29.30;1.00
20463;DHT22;10390;53.566;9.980;2022-08-19T13:03:18;29.30;1.00
20463;DHT22;10390;53.566;9.980;2022-08-19T13:05:44;29.30;1.00
20463;DHT22;10390;53.566;9.980;2022-08-19T13:08:10;29.40;1.00
20463;DHT22;10390;53.566;9.980;2022-08-19T13:10:37;29.30;1.00
20463;DHT22;10390;53.566;9.980;2022-08-19T13:13:07;29.40;1.00
20463;DHT22;10390;53.566;9.980;2022-08-19T13:15:36;29.40;1.00
20463;DHT22;10390;53.566;9.980;2022-08-19T13:18:06;29.40;1.00
20463;DHT22;10390;53.566;9.980;2022-08-19T13:20:35;29.40;1.00
20463;DHT22;10390;53.566;9.980;2022-08-19T13:23:01;29.40;1.00
20463;DHT22;10390;53.566;9.980;2022-08-19T13:25:27;29.40;1.00
20463;DHT22;10390;53.566;9.980;2022-08-19T13:27:53;29.40;1.00
20463;DHT22;10390;53.566;9.980;2022-08-19T13:30:20;29.40;1.00
20463;DHT22;10390;53.566;9.980;2022-08-19T13:33:08;29.40;1.00
20463;DHT22;10390;53.566;9.980;2022-08-19T13:35:51;29.40;1.00
20463;DHT22;10390;53.566;9.980;2022-08-19T13:38:23;29.50;1.00
20463;DHT22;10390;53.566;9.980;2022-08-19T13:40:50;29.40;1.00
20463;DHT22;10390;53.566;9.980;2022-08-19T13:43:19;29.50;1.00
20463;DHT22;10390;53.566;9.980;2022-08-19T13:45:47;29.40;1.00
20463;DHT22;10390;53.566;9.980;2022-08-19T13:48:14;29.50;1.00
20463;DHT22;10390;53.566;9.980;2022-08-19T13:50:44;29.50;1.00
20463;DHT22;10390;53.566;9.980;2022-08-19T13:53:11;29.50;1.00
20463;DHT22;10390;53.566;9.980;2022-08-19T13:55:41;29.50;1.00
20463;DHT22;10390;53.566;9.980;2022-08-19T13:58:08;29.50;1.00
20463;DHT22;10390;53.566;9.980;2022-08-19T14:00:38;29.50;1.00
20463;DHT22;10390;53.566;9.980;2022-08-19T14:03:07;29.50;1.00
20463;DHT22;10390;53.566;9.980;2022-08-19T14:05:34;29.50;1.00
20463;DHT22;10390;53.566;9.980;2022-08-19T14:08:00;29.50;1.00
20463;DHT22;10390;53.566;9.980;2022-08-19T14:10:27;29.50;1.00
20463;DHT22;10390;53.566;9.980;2022-08-19T14:12:58;29.50;1.00
20463;DHT22;10390;53.566;9.980;2022-08-19T14:15:27;29.50;1.00
20463;DHT22;10390;53.566;9.980;2022-08-19T14:17:53;29.50;1.00
20463;DHT22;10390;53.566;9.980;2022-08-19T14:20:20;29.50;1.00
20463;DHT22;10390;53.566;9.980;2022-08-19T14:22:47;29.50;1.00
20463;DHT22;10390;53.566;9.980;2022-08-19T14:25:17;29.50;1.00
20463;DHT22;10390;53.566;9.980;2022-08-19T14:27:45;29.50;1.00
20463;DHT22;10390;53.566;9.980;2022-08-19T14:30:15;29.50;1.00
20463;DHT22;10390;53.566;9.980;2022-08-19T14:32:42;29.50;1.00
20463;DHT22;10390;53.566;9.980;2022-08-19T14:35:09;29.50;1.00
20463;DHT22;10390;53.566;9.980;2022-08-19T14:37:35;29.50;1.00
20463;DHT22;10390;53.566;9.980;2022-08-19T14:40:03;29.50;1.00
20463;DHT22;10390;53.566;9.980;2022-08-19T14:42:30;29.50;1.00
20463;DHT22;10390;53.566;9.980;2022-08-19T14:44:59;29.50;1.00
20463;DHT22;10390;53.566;9.980;2022-08-19T14:47:26;29.50;1.00
20463;DHT22;10390;53.566;9.980;2022-08-19T14:49:53;29.50;1.00
20463;DHT22;10390;53.566;9.980;2022-08-19T14:52:19;29.50;1.00
20463;DHT22;10390;53.566;9.980;2022-08-19T14:54:45;29.50;1.00
20463;DHT22;10390;53.566;9.980;2022-08-19T14:57:12;29.50;1.00
20463;DHT22;10390;53.566;9.980;2022-08-19T14:59:40;29.50;1.00
20463;DHT22;10390;53.566;9.980;2022-08-19T15:02:06;29.50;1.00
20463;DHT22;10390;53.566;9.980;2022-08-19T15:04:32;29.50;1.00
20463;DHT22;10390;53.566;9.980;2022-08-19T15:06:57;29.50;1.00
20463;DHT22;10390;53.566;9.980;2022-08-19T15:09:23;29.50;1.00
20463;DHT22;10390;53.566;9.980;2022-08-19T15:11:49;29.50;1.00
20463;DHT22;10390;53.566;9.980;2022-08-19T15:14:15;29.50;1.00
20463;DHT22;10390;53.566;9.980;2022-08-19T15:16:42;29.50;1.00
20463;DHT22;10390;53.566;9.980;2022-08-19T15:19:08;29.50;1.00
20463;DHT22;10390;53.566;9.980;2022-08-19T15:21:34;29.50;1.00
20463;DHT22;10390;53.566;9.980;2022-08-19T15:24:02;29.50;1.00
20463;DHT22;10390;53.566;9.980;2022-08-19T15:26:30;29.50;1.00
20463;DHT22;10390;53.566;9.980;2022-08-19T15:28:58;29.50;1.00
20463;DHT22;10390;53.566;9.980;2022-08-19T15:31:25;29.50;1.00
20463;DHT22;10390;53.566;9.980;2022-08-19T15:33:53;29.50;1.00
20463;DHT22;10390;53.566;9.980;2022-08-19T15:36:23;29.50;1.00
20463;DHT22;10390;53.566;9.980;2022-08-19T15:38:50;29.50;1.00
20463;DHT22;10390;53.566;9.980;2022-08-19T15:41:26;29.50;1.00
20463;DHT22;10390;53.566;9.980;2022-08-19T15:44:04;29.50;1.00
20463;DHT22;10390;53.566;9.980;2022-08-19T15:46:35;29.50;1.00
20463;DHT22;10390;53.566;9.980;2022-08-19T15:49:03;29.50;1.00
20463;DHT22;10390;53.566;9.980;2022-08-19T15:51:32;29.50;1.00
20463;DHT22;10390;53.566;9.980;2022-08-19T15:54:02;29.50;1.00
20463;DHT22;10390;53.566;9.980;2022-08-19T15:56:29;29.50;1.00
20463;DHT22;10390;53.566;9.980;2022-08-19T15:59:13;29.50;1.00
20463;DHT22;10390;53.566;9.980;2022-08-19T16:01:58;29.50;1.00
20463;DHT22;10390;53.566;9.980;2022-08-19T16:04:42;29.50;1.00